Time;durP1;ratioP1;P1;durP2;ratioP2;P2;SDS_P1;SDS_P2;PMS_P1;PMS_P2;Temp;Humidity;BMP_temperature;BMP_pressure;BME280_temperature;BME280_humidity;BME280_pressure;Samples;Min_cycle;Max_cycle;Signal;HPM_P1;HPM_P2
2023/05/09 00:01:19;;;;;;;23.83;11.83;;;;;;;;;;5029428;28;20446;-67
2023/05/09 00:03:46;;;;;;;22.20;11.13;;;;;;;;;;5029775;28;20436;-67
2023/05/09 00:06:14;;;;;;;22.27;11.37;;;;;;;;;;5022505;28;21017;-67
2023/05/09 00:08:41;;;;;;;23.43;11.57;;;;;;;;;;5009618;28;20562;-67
2023/05/09 00:11:07;;;;;;;27.93;11.60;;;;;;;;;;5009549;28;20427;-67
2023/05/09 00:13:34;;;;;;;24.17;11.60;;;;;;;;;;5009966;28;20459;-67
2023/05/09 00:16:02;;;;;;;21.70;10.43;;;;;;;;;;5009929;28;20439;-67
2023/05/09 00:18:29;;;;;;;22.17;11.00;;;;;;;;;;5009795;28;20435;-67
2023/05/09 00:20:56;;;;;;;23.07;10.57;;;;;;;;;;5009820;28;20864;-67
2023/05/09 00:23:23;;;;;;;23.00;11.67;;;;;;;;;;5009451;28;21367;-67
2023/05/09 00:25:51;;;;;;;21.87;10.83;;;;;;;;;;5009418;28;20431;-67
2023/05/09 00:28:18;;;;;;;23.50;11.33;;;;;;;;;;5008375;28;20850;-67
2023/05/09 00:30:46;;;;;;;25.60;10.37;;;;;;;;;;5011515;28;20536;-67
2023/05/09 00:33:12;;;;;;;18.73;10.63;;;;;;;;;;5028356;28;20434;-67
2023/05/09 00:35:39;;;;;;;17.63;10.23;;;;;;;;;;5029253;28;20806;-67
2023/05/09 00:38:06;;;;;;;16.77;9.63;;;;;;;;;;5011208;28;21173;-67
2023/05/09 00:40:33;;;;;;;21.23;10.50;;;;;;;;;;5029040;28;20480;-67
2023/05/09 00:42:59;;;;;;;22.93;10.77;;;;;;;;;;5011573;28;20438;-67
2023/05/09 00:45:26;;;;;;;18.43;10.00;;;;;;;;;;5029217;28;20444;-67
2023/05/09 00:47:54;;;;;;;17.33;10.07;;;;;;;;;;5032104;28;20996;-67
2023/05/09 00:50:21;;;;;;;21.40;9.87;;;;;;;;;;5033242;28;20516;-67
2023/05/09 00:52:47;;;;;;;20.97;10.57;;;;;;;;;;5015303;28;20432;-67
2023/05/09 00:55:14;;;;;;;21.30;11.00;;;;;;;;;;5033139;28;20494;-67
2023/05/09 00:57:41;;;;;;;21.80;11.50;;;;;;;;;;5033315;28;20431;-67
2023/05/09 01:00:11;;;;;;;20.07;10.93;;;;;;;;;;5032768;28;20416;-67
2023/05/09 01:02:42;;;;;;;23.73;11.20;;;;;;;;;;5032068;28;20449;-67
2023/05/09 01:05:08;;;;;;;20.33;10.43;;;;;;;;;;5032709;28;20430;-67
2023/05/09 01:07:35;;;;;;;19.43;9.87;;;;;;;;;;5015099;28;20462;-67
2023/05/09 01:10:08;;;;;;;18.93;10.10;;;;;;;;;;5033118;28;20530;-67
2023/05/09 01:12:44;;;;;;;18.40;10.93;;;;;;;;;;5015362;28;20423;-69
2023/05/09 01:15:12;;;;;;;22.27;9.73;;;;;;;;;;5014966;28;20455;-67
2023/05/09 01:17:42;;;;;;;20.27;10.23;;;;;;;;;;5032982;28;20420;-67
2023/05/09 01:20:09;;;;;;;23.37;10.63;;;;;;;;;;5031149;28;20478;-68
2023/05/09 01:22:36;;;;;;;20.73;10.03;;;;;;;;;;5032132;28;20494;-68
2023/05/09 01:25:13;;;;;;;19.73;10.80;;;;;;;;;;5031547;28;20508;-67
2023/05/09 01:27:46;;;;;;;17.40;9.83;;;;;;;;;;5048168;28;20477;-67
2023/05/09 01:30:12;;;;;;;20.47;10.80;;;;;;;;;;5014770;28;20438;-67
2023/05/09 01:32:39;;;;;;;20.53;9.97;;;;;;;;;;5014915;28;20458;-67
2023/05/09 01:35:06;;;;;;;18.57;10.00;;;;;;;;;;5031317;28;20446;-67
2023/05/09 01:37:33;;;;;;;21.53;10.40;;;;;;;;;;5014417;28;20434;-67
2023/05/09 01:40:07;;;;;;;20.67;11.57;;;;;;;;;;5014814;28;20942;-67
2023/05/09 02:17:53;;;;;;;20.27;10.20;;;;;;;;;;4912600;29;20424;-66
2023/05/09 02:20:23;;;;;;;16.60;11.03;;;;;;;;;;4913039;29;20790;-67
2023/05/09 02:22:49;;;;;;;18.20;10.20;;;;;;;;;;4956681;28;20561;-67
2023/05/09 02:25:17;;;;;;;20.20;11.00;;;;;;;;;;5011745;28;20942;-68
2023/05/09 02:27:45;;;;;;;21.20;10.47;;;;;;;;;;5011791;28;20814;-68
2023/05/09 02:30:16;;;;;;;20.87;11.23;;;;;;;;;;5011826;28;20487;-67
2023/05/09 02:32:43;;;;;;;17.03;10.20;;;;;;;;;;4978300;28;20439;-68
2023/05/09 02:35:11;;;;;;;19.87;10.00;;;;;;;;;;4994291;28;20794;-68
2023/05/09 02:37:39;;;;;;;16.23;9.00;;;;;;;;;;4991080;28;20446;-68
2023/05/09 02:40:07;;;;;;;18.67;9.80;;;;;;;;;;4984306;28;20434;-68
2023/05/09 02:42:34;;;;;;;22.43;11.17;;;;;;;;;;5014169;28;20437;-68
2023/05/09 02:45:01;;;;;;;29.73;11.10;;;;;;;;;;5031122;28;21065;-68
2023/05/09 02:47:28;;;;;;;27.00;11.00;;;;;;;;;;5030869;28;20434;-68
2023/05/09 02:49:56;;;;;;;28.80;11.20;;;;;;;;;;4997670;28;20438;-68
2023/05/09 02:52:23;;;;;;;39.43;11.57;;;;;;;;;;5030769;28;20434;-68
2023/05/09 02:54:49;;;;;;;39.73;11.93;;;;;;;;;;5029941;28;20437;-68
2023/05/09 02:57:17;;;;;;;49.30;12.27;;;;;;;;;;5013372;28;20442;-68
2023/05/09 02:59:44;;;;;;;37.03;11.60;;;;;;;;;;5031100;28;20939;-68
2023/05/09 03:02:11;;;;;;;37.83;11.77;;;;;;;;;;5029964;28;20441;-69
2023/05/09 03:04:37;;;;;;;26.23;11.33;;;;;;;;;;5030968;28;20431;-69
2023/05/09 03:07:04;;;;;;;38.37;11.37;;;;;;;;;;5012690;28;21020;-68
2023/05/09 03:09:32;;;;;;;32.73;11.33;;;;;;;;;;5012678;28;21075;-69
2023/05/09 03:11:59;;;;;;;34.67;10.00;;;;;;;;;;4994299;28;20461;-66
2023/05/09 03:14:26;;;;;;;23.57;10.60;;;;;;;;;;5008762;28;20508;-67
2023/05/09 03:16:53;;;;;;;30.97;11.30;;;;;;;;;;5009336;28;20446;-66
2023/05/09 03:19:29;;;;;;;37.83;11.20;;;;;;;;;;5008271;28;20462;-66
2023/05/09 03:21:57;;;;;;;23.93;10.97;;;;;;;;;;5024478;28;20455;-68
2023/05/09 03:24:29;;;;;;;29.73;10.67;;;;;;;;;;5007502;28;20453;-69
2023/05/09 03:26:56;;;;;;;29.17;10.23;;;;;;;;;;5027325;28;20457;-66
2023/05/09 03:29:23;;;;;;;29.10;11.13;;;;;;;;;;5008910;28;21013;-66
2023/05/09 03:31:49;;;;;;;30.67;11.70;;;;;;;;;;5008875;28;20549;-67
2023/05/09 03:34:16;;;;;;;26.23;10.87;;;;;;;;;;5027441;28;20782;-68
2023/05/09 03:36:44;;;;;;;23.63;11.43;;;;;;;;;;5009737;28;21089;-65
2023/05/09 03:39:13;;;;;;;26.97;10.93;;;;;;;;;;5009333;28;20532;-66
2023/05/09 03:41:43;;;;;;;30.60;11.27;;;;;;;;;;5010161;28;20438;-65
2023/05/09 03:44:10;;;;;;;27.97;10.83;;;;;;;;;;5009159;28;20478;-65
2023/05/09 03:46:37;;;;;;;28.33;10.73;;;;;;;;;;5024974;28;20442;-65
2023/05/09 03:49:04;;;;;;;24.47;10.53;;;;;;;;;;5008670;28;20585;-66
2023/05/09 03:51:32;;;;;;;26.67;11.13;;;;;;;;;;5008956;28;20444;-65
2023/05/09 03:54:01;;;;;;;27.10;11.40;;;;;;;;;;5008955;28;20517;-66
2023/05/09 03:56:28;;;;;;;24.40;10.77;;;;;;;;;;5025151;28;20528;-67
2023/05/09 03:58:55;;;;;;;30.83;12.60;;;;;;;;;;5026651;28;20446;-67
2023/05/09 04:01:23;;;;;;;48.60;12.00;;;;;;;;;;5007165;28;20464;-65
2023/05/09 04:03:51;;;;;;;55.30;12.97;;;;;;;;;;5018425;28;20553;-65
2023/05/09 04:06:19;;;;;;;57.23;12.83;;;;;;;;;;5008216;28;20465;-65
2023/05/09 04:08:46;;;;;;;40.33;12.17;;;;;;;;;;4992399;28;20484;-66
2023/05/09 04:11:13;;;;;;;48.10;12.17;;;;;;;;;;5010013;28;20424;-65
2023/05/09 04:13:43;;;;;;;37.27;12.47;;;;;;;;;;5024381;28;21063;-65
2023/05/09 04:16:20;;;;;;;39.63;12.27;;;;;;;;;;5008136;28;20505;-65
2023/05/09 04:18:48;;;;;;;33.10;11.70;;;;;;;;;;5020476;28;20478;-69
2023/05/09 04:21:14;;;;;;;32.50;12.13;;;;;;;;;;4983206;28;20446;-65
2023/05/09 04:23:45;;;;;;;34.93;12.83;;;;;;;;;;5007447;28;20485;-66
2023/05/09 04:26:14;;;;;;;33.97;11.97;;;;;;;;;;5040472;28;20481;-66
2023/05/09 04:28:43;;;;;;;30.17;13.27;;;;;;;;;;5009845;28;20470;-64
2023/05/09 04:31:13;;;;;;;35.70;12.80;;;;;;;;;;5010485;28;20996;-64
2023/05/09 04:33:44;;;;;;;29.47;12.23;;;;;;;;;;5008959;28;20454;-65
2023/05/09 04:36:11;;;;;;;30.03;11.90;;;;;;;;;;5008670;28;20204;-65
2023/05/09 04:38:38;;;;;;;28.20;11.30;;;;;;;;;;5008071;28;20195;-65
2023/05/09 04:41:09;;;;;;;29.27;11.40;;;;;;;;;;5008289;28;20540;-67
2023/05/09 04:43:35;;;;;;;26.67;11.03;;;;;;;;;;5008797;28;20407;-67
2023/05/09 04:46:03;;;;;;;30.07;11.10;;;;;;;;;;4991307;28;20890;-67
2023/05/09 04:48:31;;;;;;;26.73;11.43;;;;;;;;;;4991923;28;20269;-68
2023/05/09 04:50:58;;;;;;;18.20;11.20;;;;;;;;;;5022936;28;20207;-68
2023/05/09 04:53:27;;;;;;;24.20;11.23;;;;;;;;;;5011444;28;20605;-67
2023/05/09 04:55:55;;;;;;;27.53;11.47;;;;;;;;;;5007750;28;20210;-69
2023/05/09 04:58:25;;;;;;;22.50;11.40;;;;;;;;;;5008341;28;20187;-73
2023/05/09 05:00:53;;;;;;;27.07;11.73;;;;;;;;;;4993454;28;20207;-67
2023/05/09 05:03:21;;;;;;;25.47;11.90;;;;;;;;;;5026473;28;20222;-68
2023/05/09 05:05:48;;;;;;;29.20;11.93;;;;;;;;;;5008458;28;20282;-68
2023/05/09 05:08:15;;;;;;;32.83;13.33;;;;;;;;;;4991651;28;20199;-66
2023/05/09 05:10:43;;;;;;;29.23;13.67;;;;;;;;;;4995091;28;20188;-69
2023/05/09 05:13:12;;;;;;;32.97;12.93;;;;;;;;;;5008536;28;20204;-69
2023/05/09 05:15:43;;;;;;;33.47;13.20;;;;;;;;;;5008085;28;20265;-68
2023/05/09 05:18:11;;;;;;;28.90;13.70;;;;;;;;;;5035185;28;20437;-66
2023/05/09 05:20:41;;;;;;;27.60;12.93;;;;;;;;;;5008661;28;20216;-71
2023/05/09 05:23:08;;;;;;;26.23;13.80;;;;;;;;;;5007799;28;20293;-72
2023/05/09 05:25:35;;;;;;;29.67;13.67;;;;;;;;;;5026111;28;20192;-65
2023/05/09 05:28:02;;;;;;;29.10;14.33;;;;;;;;;;5009561;28;20256;-72
2023/05/09 05:30:29;;;;;;;31.67;13.53;;;;;;;;;;5006740;28;20592;-66
2023/05/09 05:33:05;;;;;;;29.50;13.87;;;;;;;;;;5009308;28;20195;-70
2023/05/09 05:35:32;;;;;;;23.13;12.43;;;;;;;;;;5009961;28;20229;-70
2023/05/09 05:37:59;;;;;;;27.67;13.40;;;;;;;;;;5012060;28;20191;-69
2023/05/09 05:40:27;;;;;;;26.87;12.83;;;;;;;;;;5008868;28;20293;-70
2023/05/09 05:42:54;;;;;;;23.13;11.63;;;;;;;;;;5010678;28;20187;-69
2023/05/09 05:45:22;;;;;;;26.13;11.90;;;;;;;;;;5011108;28;20191;-70
2023/05/09 05:47:53;;;;;;;30.45;14.48;;;;;;;;;;5011488;28;20446;-67
2023/05/09 05:50:21;;;;;;;24.80;13.50;;;;;;;;;;5026770;28;20215;-68
2023/05/09 05:52:48;;;;;;;32.47;15.27;;;;;;;;;;5009986;28;20295;-66
2023/05/09 05:55:18;;;;;;;27.77;13.60;;;;;;;;;;5027220;28;20230;-70
2023/05/09 05:57:46;;;;;;;36.77;16.93;;;;;;;;;;5011231;28;20187;-68
2023/05/09 06:00:15;;;;;;;28.80;11.13;;;;;;;;;;5009863;28;20230;-70
2023/05/09 06:02:49;;;;;;;14.87;6.90;;;;;;;;;;5002523;28;20897;-70
2023/05/09 06:05:27;;;;;;;15.67;7.67;;;;;;;;;;5012491;28;20279;-70
2023/05/09 06:07:54;;;;;;;13.30;6.00;;;;;;;;;;5013505;28;20278;-69
2023/05/09 06:10:21;;;;;;;11.57;5.80;;;;;;;;;;5030806;28;20216;-70
2023/05/09 06:12:47;;;;;;;12.60;5.47;;;;;;;;;;5010346;28;20199;-70
2023/05/09 06:15:14;;;;;;;10.43;5.10;;;;;;;;;;5022885;28;20249;-70
2023/05/09 06:17:44;;;;;;;10.93;5.43;;;;;;;;;;5011045;28;20203;-70
2023/05/09 06:20:11;;;;;;;5.80;4.17;;;;;;;;;;5027424;28;20254;-70
2023/05/09 06:22:38;;;;;;;7.00;4.10;;;;;;;;;;5012594;28;20319;-69
2023/05/09 06:25:05;;;;;;;9.27;4.13;;;;;;;;;;5012640;28;20191;-70
2023/05/09 06:27:35;;;;;;;9.10;4.60;;;;;;;;;;5010930;28;20190;-70
2023/05/09 06:30:02;;;;;;;8.87;4.70;;;;;;;;;;5012613;28;20281;-70
2023/05/09 06:32:50;;;;;;;10.07;5.00;;;;;;;;;;5024461;28;20645;-70
2023/05/09 06:35:17;;;;;;;10.73;5.00;;;;;;;;;;5033334;28;20201;-70
2023/05/09 06:37:47;;;;;;;8.33;4.67;;;;;;;;;;5015770;28;20209;-69
2023/05/09 06:40:15;;;;;;;11.60;4.80;;;;;;;;;;5033018;28;20191;-70
2023/05/09 06:42:42;;;;;;;10.10;4.03;;;;;;;;;;5033180;28;20234;-70
2023/05/09 06:45:09;;;;;;;8.47;4.30;;;;;;;;;;5015368;28;20270;-66
2023/05/09 06:47:36;;;;;;;12.53;4.10;;;;;;;;;;5028013;28;20195;-68
2023/05/09 06:50:03;;;;;;;8.10;3.57;;;;;;;;;;5037139;28;20812;-66
2023/05/09 06:52:31;;;;;;;7.20;3.97;;;;;;;;;;5028779;28;20199;-68
2023/05/09 06:54:58;;;;;;;8.73;3.57;;;;;;;;;;5033903;28;20199;-70
2023/05/09 06:57:28;;;;;;;8.80;3.40;;;;;;;;;;5041078;28;20266;-68
2023/05/09 06:59:55;;;;;;;5.53;3.30;;;;;;;;;;5024808;28;20184;-67
2023/05/09 07:02:22;;;;;;;6.20;3.50;;;;;;;;;;5047483;28;20194;-67
2023/05/09 07:04:49;;;;;;;6.50;3.27;;;;;;;;;;5032395;28;20203;-69
2023/05/09 07:07:18;;;;;;;4.50;3.03;;;;;;;;;;5003333;28;20644;-71
2023/05/09 07:09:49;;;;;;;5.63;2.80;;;;;;;;;;5020191;28;20198;-69
2023/05/09 07:12:20;;;;;;;5.73;2.70;;;;;;;;;;5035979;28;20195;-68
2023/05/09 07:14:47;;;;;;;6.03;3.10;;;;;;;;;;5030500;28;20221;-67
2023/05/09 07:17:14;;;;;;;7.80;2.80;;;;;;;;;;5038423;28;20205;-70
2023/05/09 07:19:50;;;;;;;6.63;2.67;;;;;;;;;;5040952;28;20550;-71
2023/05/09 07:22:17;;;;;;;5.60;2.70;;;;;;;;;;5012943;28;20284;-68
2023/05/09 07:24:45;;;;;;;4.37;3.00;;;;;;;;;;5032362;28;20187;-69
2023/05/09 07:27:12;;;;;;;6.23;3.20;;;;;;;;;;5016582;28;20187;-67
2023/05/09 07:29:39;;;;;;;5.27;2.63;;;;;;;;;;4999199;28;20609;-68
2023/05/09 07:32:06;;;;;;;6.87;3.53;;;;;;;;;;5034073;28;20241;-68
2023/05/09 07:34:33;;;;;;;9.73;3.07;;;;;;;;;;5017276;28;20242;-68
2023/05/09 07:36:59;;;;;;;15.63;3.10;;;;;;;;;;5037225;28;20644;-67
2023/05/09 07:39:29;;;;;;;3.93;2.73;;;;;;;;;;5046360;28;20186;-68
2023/05/09 07:41:55;;;;;;;6.37;3.03;;;;;;;;;;5037368;28;20195;-67
2023/05/09 07:44:22;;;;;;;4.60;3.20;;;;;;;;;;5002462;28;20200;-63
2023/05/09 07:46:51;;;;;;;6.43;3.37;;;;;;;;;;5027156;28;20687;-64
2023/05/09 07:49:18;;;;;;;7.27;3.13;;;;;;;;;;5013063;28;20242;-64
2023/05/09 07:51:44;;;;;;;6.60;3.50;;;;;;;;;;5037608;28;20190;-62
2023/05/09 07:54:11;;;;;;;9.03;3.03;;;;;;;;;;5033103;28;20195;-63
2023/05/09 07:56:38;;;;;;;5.37;3.10;;;;;;;;;;5015412;28;20689;-63
2023/05/09 07:59:05;;;;;;;6.33;3.30;;;;;;;;;;5044657;28;20198;-65
2023/05/09 08:01:32;;;;;;;5.40;3.00;;;;;;;;;;5031265;28;20226;-64
2023/05/09 08:03:59;;;;;;;6.37;2.80;;;;;;;;;;5035217;28;20220;-64
2023/05/09 08:06:26;;;;;;;9.30;3.20;;;;;;;;;;5016139;28;20190;-65
2023/05/09 08:08:54;;;;;;;7.97;3.37;;;;;;;;;;5021790;28;20198;-64
2023/05/09 08:11:20;;;;;;;7.10;3.57;;;;;;;;;;5031549;28;20693;-64
2023/05/09 08:13:49;;;;;;;7.30;2.97;;;;;;;;;;5014596;28;20218;-65
2023/05/09 08:16:16;;;;;;;9.10;3.43;;;;;;;;;;5034790;28;20684;-63
2023/05/09 08:18:44;;;;;;;4.93;3.37;;;;;;;;;;5031105;28;20191;-62
2023/05/09 08:21:11;;;;;;;8.53;3.20;;;;;;;;;;5029905;28;20246;-63
2023/05/09 08:23:40;;;;;;;5.20;3.10;;;;;;;;;;5007490;28;20230;-63
2023/05/09 08:26:07;;;;;;;6.90;3.10;;;;;;;;;;5033831;28;20293;-63
2023/05/09 08:28:34;;;;;;;4.77;3.27;;;;;;;;;;5032789;28;20278;-63
2023/05/09 08:31:01;;;;;;;6.57;3.60;;;;;;;;;;5031330;28;20214;-62
2023/05/09 08:33:27;;;;;;;6.67;3.20;;;;;;;;;;5041089;28;20584;-64
2023/05/09 08:35:55;;;;;;;7.57;3.10;;;;;;;;;;5029552;28;20230;-65
2023/05/09 08:38:23;;;;;;;6.43;3.23;;;;;;;;;;5025349;28;20198;-65
2023/05/09 08:40:49;;;;;;;7.90;3.60;;;;;;;;;;5027260;28;20282;-67
2023/05/09 08:43:18;;;;;;;6.60;3.13;;;;;;;;;;5041507;28;20218;-65
2023/05/09 08:45:48;;;;;;;6.47;3.50;;;;;;;;;;5010631;28;20195;-65
2023/05/09 08:48:15;;;;;;;6.37;3.23;;;;;;;;;;5047004;28;20191;-64
2023/05/09 08:50:42;;;;;;;5.97;2.90;;;;;;;;;;5035625;28;20591;-64
2023/05/09 08:53:15;;;;;;;8.63;2.93;;;;;;;;;;5028294;28;20270;-65
2023/05/09 08:55:42;;;;;;;7.33;4.10;;;;;;;;;;4995602;28;20274;-68
2023/05/09 08:58:08;;;;;;;6.63;3.70;;;;;;;;;;5027806;28;20194;-68
2023/05/09 09:00:36;;;;;;;6.73;3.80;;;;;;;;;;5029782;28;20198;-67
2023/05/09 09:03:04;;;;;;;6.70;3.90;;;;;;;;;;5046327;28;20191;-66
2023/05/09 09:05:35;;;;;;;5.27;3.47;;;;;;;;;;4977359;28;20275;-65
2023/05/09 09:08:08;;;;;;;8.83;3.83;;;;;;;;;;5025301;28;20239;-66
2023/05/09 09:10:35;;;;;;;5.80;3.40;;;;;;;;;;5026242;28;20223;-66
2023/05/09 09:13:03;;;;;;;10.53;3.40;;;;;;;;;;5046965;28;21024;-68
2023/05/09 09:15:33;;;;;;;6.10;3.17;;;;;;;;;;5009002;28;20191;-67
2023/05/09 09:18:03;;;;;;;4.13;3.00;;;;;;;;;;5034128;28;20179;-66
2023/05/09 09:20:33;;;;;;;7.70;3.40;;;;;;;;;;5023933;28;20227;-68
2023/05/09 09:23:00;;;;;;;5.50;3.63;;;;;;;;;;5042225;28;20238;-68
2023/05/09 09:25:27;;;;;;;7.53;3.60;;;;;;;;;;5015732;28;20207;-67
2023/05/09 09:27:57;;;;;;;5.73;3.53;;;;;;;;;;5021724;28;20194;-67
2023/05/09 09:30:24;;;;;;;5.20;3.30;;;;;;;;;;5011149;28;20243;-67
2023/05/09 09:32:51;;;;;;;5.83;3.20;;;;;;;;;;5032193;28;20195;-67
2023/05/09 09:35:19;;;;;;;5.67;3.70;;;;;;;;;;5032732;28;20245;-67
2023/05/09 09:37:46;;;;;;;7.73;3.43;;;;;;;;;;5032131;28;20183;-67
2023/05/09 09:40:13;;;;;;;6.93;3.60;;;;;;;;;;5032320;28;20535;-67
2023/05/09 09:42:46;;;;;;;4.37;2.90;;;;;;;;;;5032733;28;20187;-66
2023/05/09 09:45:15;;;;;;;4.13;3.10;;;;;;;;;;5032503;28;20194;-67
2023/05/09 09:47:42;;;;;;;6.33;3.13;;;;;;;;;;5032152;28;20195;-66
2023/05/09 09:50:10;;;;;;;7.40;3.53;;;;;;;;;;5032132;28;20239;-67
2023/05/09 09:52:41;;;;;;;7.53;3.20;;;;;;;;;;5032193;28;20179;-67
2023/05/09 09:55:08;;;;;;;6.17;3.50;;;;;;;;;;5013828;28;20909;-67
2023/05/09 09:57:38;;;;;;;5.50;3.47;;;;;;;;;;5023619;28;20805;-66
2023/05/09 10:00:06;;;;;;;4.73;3.20;;;;;;;;;;5030936;28;20211;-65
2023/05/09 10:02:34;;;;;;;6.60;3.70;;;;;;;;;;5014482;28;20195;-64
2023/05/09 10:05:07;;;;;;;13.73;3.67;;;;;;;;;;5040203;28;20202;-67
2023/05/09 10:07:37;;;;;;;5.13;3.23;;;;;;;;;;5034749;28;20186;-65
2023/05/09 10:10:05;;;;;;;4.73;2.80;;;;;;;;;;5030692;28;20234;-65
2023/05/09 10:12:33;;;;;;;6.17;3.07;;;;;;;;;;5040913;28;20193;-66
2023/05/09 10:15:00;;;;;;;9.10;3.13;;;;;;;;;;5030621;28;20195;-64
2023/05/09 10:17:27;;;;;;;6.97;3.10;;;;;;;;;;5021015;28;20195;-63
2023/05/09 10:19:54;;;;;;;7.00;3.77;;;;;;;;;;5042598;28;20191;-62
2023/05/09 10:22:21;;;;;;;9.27;3.33;;;;;;;;;;5022510;28;20232;-67
2023/05/09 10:25:21;;;;;;;10.53;3.93;;;;;;;;;;5049016;28;20285;-66
2023/05/09 10:27:47;;;;;;;5.87;3.90;;;;;;;;;;4987139;28;20203;-69
2023/05/09 10:30:21;;;;;;;5.27;3.63;;;;;;;;;;5018594;28;20254;-67
2023/05/09 10:32:57;;;;;;;5.23;3.13;;;;;;;;;;5036755;28;20203;-64
2023/05/09 10:35:25;;;;;;;3.93;3.17;;;;;;;;;;5046938;28;20194;-65
2023/05/09 10:37:54;;;;;;;6.77;3.60;;;;;;;;;;5040314;28;20190;-68
2023/05/09 10:40:22;;;;;;;3.53;2.70;;;;;;;;;;5034996;28;20282;-67
2023/05/09 10:42:49;;;;;;;7.40;3.30;;;;;;;;;;5038463;28;20938;-67
2023/05/09 10:45:16;;;;;;;6.63;3.47;;;;;;;;;;5048454;28;20849;-65
2023/05/09 10:47:43;;;;;;;5.20;3.20;;;;;;;;;;5047412;28;20233;-65
2023/05/09 10:50:11;;;;;;;4.87;2.87;;;;;;;;;;5019414;28;20243;-67
2023/05/09 10:52:56;;;;;;;7.50;2.70;;;;;;;;;;5024755;28;20561;-63
2023/05/09 10:55:33;;;;;;;3.87;2.90;;;;;;;;;;5047556;28;20187;-64
2023/05/09 10:58:06;;;;;;;4.93;2.80;;;;;;;;;;5022502;28;20198;-65
2023/05/09 11:00:39;;;;;;;5.43;2.80;;;;;;;;;;5003613;28;20281;-67
2023/05/09 11:03:08;;;;;;;4.63;2.60;;;;;;;;;;5010171;28;20270;-68
2023/05/09 11:05:39;;;;;;;6.13;2.80;;;;;;;;;;5007894;28;20220;-65
2023/05/09 11:08:26;;;;;;;7.83;2.80;;;;;;;;;;5007929;28;20215;-66
2023/05/09 11:10:53;;;;;;;4.57;2.63;;;;;;;;;;4990587;28;20326;-66
2023/05/09 11:13:22;;;;;;;10.43;2.70;;;;;;;;;;5008289;28;20667;-67
2023/05/09 11:15:52;;;;;;;6.57;2.90;;;;;;;;;;4991019;28;20727;-68
2023/05/09 11:18:21;;;;;;;2.80;2.20;;;;;;;;;;5001976;28;20196;-64
2023/05/09 11:20:50;;;;;;;5.37;2.30;;;;;;;;;;5006120;28;20195;-64
2023/05/09 11:23:20;;;;;;;5.70;2.53;;;;;;;;;;5006894;28;20239;-63
2023/05/09 11:25:48;;;;;;;5.10;2.63;;;;;;;;;;5000849;28;20189;-65
2023/05/09 11:28:35;;;;;;;3.63;2.30;;;;;;;;;;5000398;28;20203;-65
2023/05/09 11:31:08;;;;;;;7.47;2.67;;;;;;;;;;4988622;28;20212;-64
2023/05/09 11:33:34;;;;;;;3.67;2.17;;;;;;;;;;5003161;28;20192;-66
2023/05/09 11:36:24;;;;;;;3.67;2.33;;;;;;;;;;5006147;28;20192;-64
2023/05/09 11:39:05;;;;;;;7.40;3.53;;;;;;;;;;5003948;28;20639;-64
2023/05/09 11:41:39;;;;;;;12.70;4.60;;;;;;;;;;4968472;28;20215;-63
2023/05/09 11:44:16;;;;;;;10.40;4.67;;;;;;;;;;5006853;28;20907;-63
2023/05/09 11:46:44;;;;;;;7.60;2.57;;;;;;;;;;5000192;28;20745;-64
2023/05/09 11:49:11;;;;;;;5.20;2.63;;;;;;;;;;5004614;28;20239;-64
2023/05/09 11:51:37;;;;;;;4.37;2.47;;;;;;;;;;4987641;28;20731;-64
2023/05/09 11:54:05;;;;;;;2.63;2.00;;;;;;;;;;4988079;28;20199;-64
2023/05/09 11:56:34;;;;;;;4.90;2.50;;;;;;;;;;4992393;28;20216;-65
2023/05/09 11:59:01;;;;;;;7.50;2.63;;;;;;;;;;4987518;28;20200;-64
2023/05/09 12:01:28;;;;;;;4.70;2.50;;;;;;;;;;5014706;28;20227;-64
2023/05/09 12:03:55;;;;;;;3.93;2.30;;;;;;;;;;5026917;28;20199;-64
2023/05/09 12:06:28;;;;;;;3.50;2.07;;;;;;;;;;5026900;28;20981;-64
2023/05/09 12:08:58;;;;;;;5.53;2.10;;;;;;;;;;5026119;28;20279;-65
2023/05/09 12:11:25;;;;;;;3.27;2.10;;;;;;;;;;5004882;28;20540;-63
2023/05/09 12:13:52;;;;;;;8.50;2.53;;;;;;;;;;4998884;28;20208;-64
2023/05/09 12:16:19;;;;;;;6.87;2.70;;;;;;;;;;5005465;28;20192;-62
2023/05/09 12:18:49;;;;;;;5.07;2.30;;;;;;;;;;5006855;28;20196;-63
2023/05/09 12:21:16;;;;;;;4.47;2.30;;;;;;;;;;5015086;28;20195;-64
2023/05/09 12:23:47;;;;;;;55.23;10.60;;;;;;;;;;5009667;28;20254;-65
2023/05/09 12:26:17;;;;;;;37.20;7.70;;;;;;;;;;5023547;28;20192;-63
2023/05/09 12:28:44;;;;;;;6.23;2.53;;;;;;;;;;5006839;28;20196;-67
2023/05/09 12:31:11;;;;;;;4.87;2.43;;;;;;;;;;5011147;28;20247;-71
2023/05/09 12:33:38;;;;;;;6.40;2.10;;;;;;;;;;4993954;28;20800;-65
2023/05/09 12:36:09;;;;;;;6.70;2.30;;;;;;;;;;5025717;28;20210;-65
2023/05/09 12:38:37;;;;;;;5.37;2.00;;;;;;;;;;5026219;28;20195;-65
2023/05/09 12:41:04;;;;;;;5.57;2.03;;;;;;;;;;5009701;28;20200;-67
2023/05/09 12:43:35;;;;;;;4.50;2.10;;;;;;;;;;5006523;28;20242;-65
2023/05/09 12:46:03;;;;;;;6.17;2.10;;;;;;;;;;5003292;28;20191;-65
2023/05/09 12:48:34;;;;;;;3.93;1.90;;;;;;;;;;5027032;28;20226;-67
2023/05/09 12:51:01;;;;;;;7.40;2.00;;;;;;;;;;5023549;28;20278;-65
2023/05/09 12:53:30;;;;;;;4.50;2.30;;;;;;;;;;4989025;28;20640;-65
2023/05/09 12:56:03;;;;;;;4.97;2.10;;;;;;;;;;5019756;28;20198;-67
2023/05/09 12:58:30;;;;;;;4.27;2.27;;;;;;;;;;5025995;28;20195;-67
2023/05/09 13:00:57;;;;;;;3.30;2.03;;;;;;;;;;5008649;28;20191;-67
2023/05/09 13:03:29;;;;;;;6.33;2.20;;;;;;;;;;5023130;28;20644;-66
2023/05/09 13:06:00;;;;;;;2.93;1.90;;;;;;;;;;5009452;28;20707;-66
2023/05/09 13:08:27;;;;;;;3.57;2.20;;;;;;;;;;5006294;28;20190;-66
2023/05/09 13:10:54;;;;;;;6.40;2.40;;;;;;;;;;5018203;28;20230;-65
2023/05/09 13:13:33;;;;;;;4.67;2.13;;;;;;;;;;4996250;28;20187;-66
2023/05/09 13:16:02;;;;;;;5.13;2.10;;;;;;;;;;5019646;28;20253;-66
2023/05/09 13:18:29;;;;;;;6.67;2.20;;;;;;;;;;5025821;28;20251;-65
2023/05/09 13:20:56;;;;;;;11.17;2.60;;;;;;;;;;5022806;28;20296;-66
2023/05/09 13:23:22;;;;;;;8.50;2.90;;;;;;;;;;5025723;28;20261;-64
2023/05/09 13:25:49;;;;;;;7.40;2.63;;;;;;;;;;5025370;28;20276;-65
2023/05/09 13:28:15;;;;;;;4.20;2.13;;;;;;;;;;5006398;28;20639;-65
2023/05/09 13:30:44;;;;;;;8.83;3.53;;;;;;;;;;5018052;28;20211;-65
2023/05/09 13:33:11;;;;;;;8.60;4.70;;;;;;;;;;5026049;28;20199;-65
2023/05/09 13:35:51;;;;;;;5.33;2.10;;;;;;;;;;5025217;28;20195;-66
2023/05/09 13:38:19;;;;;;;2.93;1.87;;;;;;;;;;5006620;28;20188;-67
2023/05/09 13:40:46;;;;;;;6.67;2.40;;;;;;;;;;5006208;28;20901;-69
2023/05/09 13:43:13;;;;;;;3.70;2.10;;;;;;;;;;5025460;28;20254;-69
2023/05/09 13:45:40;;;;;;;4.30;1.80;;;;;;;;;;5026262;28;20187;-68
2023/05/09 13:48:06;;;;;;;3.50;2.40;;;;;;;;;;5025841;28;20199;-68
2023/05/09 13:50:34;;;;;;;3.87;2.37;;;;;;;;;;5022604;28;20274;-67
2023/05/09 13:53:02;;;;;;;3.87;2.10;;;;;;;;;;5009663;28;20299;-66
2023/05/09 13:55:29;;;;;;;4.20;2.07;;;;;;;;;;5018812;28;20187;-66
2023/05/09 13:57:56;;;;;;;4.93;2.20;;;;;;;;;;5019660;28;20192;-69
2023/05/09 14:00:26;;;;;;;6.53;2.37;;;;;;;;;;5017255;28;20274;-67
2023/05/09 14:02:52;;;;;;;7.10;2.27;;;;;;;;;;4997163;28;20184;-66
2023/05/09 14:05:19;;;;;;;3.90;2.10;;;;;;;;;;5011094;28;20188;-67
2023/05/09 14:07:46;;;;;;;4.13;1.87;;;;;;;;;;5011136;28;20294;-66
2023/05/09 14:10:13;;;;;;;3.63;2.10;;;;;;;;;;5018199;28;20674;-66
2023/05/09 14:12:42;;;;;;;4.57;2.37;;;;;;;;;;5024868;28;20208;-67
2023/05/09 14:15:10;;;;;;;3.07;1.80;;;;;;;;;;4994164;28;20275;-67
2023/05/09 14:17:36;;;;;;;3.90;2.20;;;;;;;;;;5023005;28;20286;-67
2023/05/09 14:20:03;;;;;;;6.33;2.30;;;;;;;;;;5017530;28;20230;-67
2023/05/09 14:22:31;;;;;;;4.10;1.93;;;;;;;;;;5029709;28;20262;-67
2023/05/09 14:24:58;;;;;;;4.77;2.17;;;;;;;;;;5003261;28;20222;-67
2023/05/09 14:27:25;;;;;;;3.17;2.00;;;;;;;;;;5030300;28;20645;-67
2023/05/09 14:29:52;;;;;;;5.10;2.20;;;;;;;;;;5012879;28;20224;-68
2023/05/09 14:32:18;;;;;;;3.23;2.20;;;;;;;;;;5019673;28;20222;-68
2023/05/09 14:34:48;;;;;;;5.40;1.93;;;;;;;;;;5014139;28;20207;-67
2023/05/09 14:37:15;;;;;;;3.90;2.23;;;;;;;;;;5012814;28;20200;-66
2023/05/09 14:39:43;;;;;;;5.13;2.20;;;;;;;;;;5015747;28;20196;-67
2023/05/09 14:42:12;;;;;;;4.90;2.07;;;;;;;;;;4995954;28;20792;-66
2023/05/09 14:44:40;;;;;;;5.50;2.17;;;;;;;;;;4998446;28;20203;-65
2023/05/09 14:47:07;;;;;;;3.77;2.03;;;;;;;;;;5014188;28;20188;-66
2023/05/09 14:49:35;;;;;;;3.70;2.17;;;;;;;;;;5015428;28;20196;-66
2023/05/09 14:52:02;;;;;;;17.27;3.07;;;;;;;;;;5014471;28;20243;-67
2023/05/09 14:54:29;;;;;;;6.03;2.40;;;;;;;;;;5016445;28;20206;-66
2023/05/09 14:56:58;;;;;;;3.67;1.90;;;;;;;;;;5015106;28;20997;-67
2023/05/09 14:59:24;;;;;;;5.57;2.13;;;;;;;;;;5016252;28;20208;-67
2023/05/09 15:01:51;;;;;;;3.67;2.00;;;;;;;;;;4991915;28;20193;-66
2023/05/09 15:04:18;;;;;;;5.50;2.43;;;;;;;;;;5017469;28;20232;-66
2023/05/09 15:06:45;;;;;;;5.20;2.20;;;;;;;;;;4998661;28;20226;-65
2023/05/09 15:09:11;;;;;;;6.40;2.40;;;;;;;;;;4985286;28;20192;-67
2023/05/09 15:11:40;;;;;;;5.00;2.00;;;;;;;;;;5006387;28;20633;-65
2023/05/09 15:14:15;;;;;;;6.43;2.70;;;;;;;;;;5019096;28;20266;-65
2023/05/09 15:16:42;;;;;;;5.57;1.80;;;;;;;;;;5015651;28;20183;-65